sensor_id;sensor_type;location;lat;lon;timestamp;temperature;humidity
20750;DHT22;10535;50.664;4.564;2022-08-01T00:00:40;21.60;99.90
20750;DHT22;10535;50.664;4.564;2022-08-01T00:03:07;21.50;99.90
20750;DHT22;10535;50.664;4.564;2022-08-01T00:05:40;21.50;99.90
20750;DHT22;10535;50.664;4.564;2022-08-01T00:08:08;21.40;99.90
20750;DHT22;10535;50.664;4.564;2022-08-01T00:10:36;21.30;99.90
20750;DHT22;10535;50.664;4.564;2022-08-01T00:13:06;21.40;99.90
20750;DHT22;10535;50.664;4.564;2022-08-01T00:15:43;21.40;99.90
20750;DHT22;10535;50.664;4.564;2022-08-01T00:18:09;21.50;99.90
20750;DHT22;10535;50.664;4.564;2022-08-01T00:20:35;21.40;99.90
20750;DHT22;10535;50.664;4.564;2022-08-01T00:23:03;21.30;99.90
20750;DHT22;10535;50.664;4.564;2022-08-01T00:25:32;21.20;99.90
20750;DHT22;10535;50.664;4.564;2022-08-01T00:28:04;21.30;99.90
20750;DHT22;10535;50.664;4.564;2022-08-01T00:30:35;21.20;99.90
20750;DHT22;10535;50.664;4.564;2022-08-01T00:33:13;21.30;99.90
20750;DHT22;10535;50.664;4.564;2022-08-01T00:35:45;21.20;99.90
20750;DHT22;10535;50.664;4.564;2022-08-01T00:38:11;21.30;99.90
20750;DHT22;10535;50.664;4.564;2022-08-01T00:40:37;21.10;99.90
20750;DHT22;10535;50.664;4.564;2022-08-01T00:43:03;21.20;99.90
20750;DHT22;10535;50.664;4.564;2022-08-01T00:45:30;21.10;99.90
20750;DHT22;10535;50.664;4.564;2022-08-01T00:47:56;21.00;99.90
20750;DHT22;10535;50.664;4.564;2022-08-01T00:50:24;21.10;99.90
20750;DHT22;10535;50.664;4.564;2022-08-01T00:52:57;20.90;99.90
20750;DHT22;10535;50.664;4.564;2022-08-01T00:55:30;21.00;99.90
20750;DHT22;10535;50.664;4.564;2022-08-01T00:57:57;21.10;99.90
20750;DHT22;10535;50.664;4.564;2022-08-01T01:00:24;21.00;99.90
20750;DHT22;10535;50.664;4.564;2022-08-01T01:02:51;21.10;99.90
20750;DHT22;10535;50.664;4.564;2022-08-01T01:05:22;21.10;99.90
20750;DHT22;10535;50.664;4.564;2022-08-01T01:08:14;21.00;99.90
20750;DHT22;10535;50.664;4.564;2022-08-01T01:11:08;21.00;99.90
20750;DHT22;10535;50.664;4.564;2022-08-01T01:13:48;21.00;99.90
20750;DHT22;10535;50.664;4.564;2022-08-01T01:16:19;20.90;99.90
20750;DHT22;10535;50.664;4.564;2022-08-01T01:19:01;21.00;99.90
20750;DHT22;10535;50.664;4.564;2022-08-01T01:25:14;20.80;99.90
20750;DHT22;10535;50.664;4.564;2022-08-01T01:28:12;20.80;99.90
20750;DHT22;10535;50.664;4.564;2022-08-01T01:30:49;20.80;99.90
20750;DHT22;10535;50.664;4.564;2022-08-01T01:33:18;20.80;99.90
20750;DHT22;10535;50.664;4.564;2022-08-01T01:36:05;20.80;99.90
20750;DHT22;10535;50.664;4.564;2022-08-01T01:39:00;21.00;99.90
20750;DHT22;10535;50.664;4.564;2022-08-01T01:41:27;20.80;99.90
20750;DHT22;10535;50.664;4.564;2022-08-01T01:44:03;20.70;99.90
20750;DHT22;10535;50.664;4.564;2022-08-01T01:46:31;20.70;99.90
20750;DHT22;10535;50.664;4.564;2022-08-01T01:49:00;20.80;99.90
20750;DHT22;10535;50.664;4.564;2022-08-01T01:51:35;20.70;99.90
20750;DHT22;10535;50.664;4.564;2022-08-01T01:54:13;20.70;99.90
20750;DHT22;10535;50.664;4.564;2022-08-01T01:56:45;20.80;99.90
20750;DHT22;10535;50.664;4.564;2022-08-01T01:59:42;20.80;99.90
20750;DHT22;10535;50.664;4.564;2022-08-01T02:02:15;20.70;99.90
20750;DHT22;10535;50.664;4.564;2022-08-01T02:05:02;20.80;99.90
20750;DHT22;10535;50.664;4.564;2022-08-01T02:07:35;20.70;99.90
20750;DHT22;10535;50.664;4.564;2022-08-01T02:10:41;20.70;99.90
20750;DHT22;10535;50.664;4.564;2022-08-01T02:13:57;20.60;99.90
20750;DHT22;10535;50.664;4.564;2022-08-01T02:16:41;20.50;99.90
20750;DHT22;10535;50.664;4.564;2022-08-01T02:19:10;20.60;99.90
20750;DHT22;10535;50.664;4.564;2022-08-01T02:21:52;20.60;99.90
20750;DHT22;10535;50.664;4.564;2022-08-01T02:28:09;20.50;99.90
20750;DHT22;10535;50.664;4.564;2022-08-01T02:30:37;20.40;99.90
20750;DHT22;10535;50.664;4.564;2022-08-01T02:33:12;20.50;99.90
20750;DHT22;10535;50.664;4.564;2022-08-01T02:35:42;20.60;99.90
20750;DHT22;10535;50.664;4.564;2022-08-01T02:38:12;20.60;99.90
20750;DHT22;10535;50.664;4.564;2022-08-01T02:40:42;20.70;99.90
20750;DHT22;10535;50.664;4.564;2022-08-01T02:43:09;20.70;99.90
20750;DHT22;10535;50.664;4.564;2022-08-01T02:45:41;20.80;99.90
20750;DHT22;10535;50.664;4.564;2022-08-01T02:48:13;20.90;99.90
20750;DHT22;10535;50.664;4.564;2022-08-01T02:50:42;20.80;99.90
20750;DHT22;10535;50.664;4.564;2022-08-01T02:53:09;20.70;99.90
20750;DHT22;10535;50.664;4.564;2022-08-01T02:55:38;20.80;99.90
20750;DHT22;10535;50.664;4.564;2022-08-01T02:58:06;20.80;99.90
20750;DHT22;10535;50.664;4.564;2022-08-01T03:00:33;20.70;99.90
20750;DHT22;10535;50.664;4.564;2022-08-01T03:03:01;20.80;99.90
20750;DHT22;10535;50.664;4.564;2022-08-01T03:05:28;20.90;99.90
20750;DHT22;10535;50.664;4.564;2022-08-01T03:07:57;21.00;99.90
20750;DHT22;10535;50.664;4.564;2022-08-01T03:10:27;21.00;99.90
20750;DHT22;10535;50.664;4.564;2022-08-01T03:12:53;20.70;99.90
20750;DHT22;10535;50.664;4.564;2022-08-01T03:15:21;20.60;99.90
20750;DHT22;10535;50.664;4.564;2022-08-01T03:17:47;20.40;99.90
20750;DHT22;10535;50.664;4.564;2022-08-01T03:20:18;20.50;99.90
20750;DHT22;10535;50.664;4.564;2022-08-01T03:22:46;20.60;99.90
20750;DHT22;10535;50.664;4.564;2022-08-01T03:25:15;20.60;99.90
20750;DHT22;10535;50.664;4.564;2022-08-01T03:27:43;20.50;99.90
20750;DHT22;10535;50.664;4.564;2022-08-01T03:30:11;20.20;99.90
20750;DHT22;10535;50.664;4.564;2022-08-01T03:32:38;20.20;99.90
20750;DHT22;10535;50.664;4.564;2022-08-01T03:35:04;20.20;99.90
20750;DHT22;10535;50.664;4.564;2022-08-01T03:37:40;20.10;99.90
20750;DHT22;10535;50.664;4.564;2022-08-01T03:40:16;20.10;99.90
20750;DHT22;10535;50.664;4.564;2022-08-01T03:42:46;20.20;99.90
20750;DHT22;10535;50.664;4.564;2022-08-01T03:45:21;20.20;99.90
20750;DHT22;10535;50.664;4.564;2022-08-01T03:47:49;20.10;99.90
20750;DHT22;10535;50.664;4.564;2022-08-01T03:50:19;20.00;99.90
20750;DHT22;10535;50.664;4.564;2022-08-01T03:52:46;20.00;99.90
20750;DHT22;10535;50.664;4.564;2022-08-01T03:55:15;20.10;99.90
20750;DHT22;10535;50.664;4.564;2022-08-01T03:57:42;20.20;99.90
20750;DHT22;10535;50.664;4.564;2022-08-01T04:00:09;20.30;99.90
20750;DHT22;10535;50.664;4.564;2022-08-01T04:02:36;20.20;99.90
20750;DHT22;10535;50.664;4.564;2022-08-01T04:05:03;20.20;99.90
20750;DHT22;10535;50.664;4.564;2022-08-01T04:07:33;20.30;99.90
20750;DHT22;10535;50.664;4.564;2022-08-01T04:10:01;20.30;99.90
20750;DHT22;10535;50.664;4.564;2022-08-01T04:12:27;20.30;99.90
20750;DHT22;10535;50.664;4.564;2022-08-01T04:14:52;20.10;99.90
20750;DHT22;10535;50.664;4.564;2022-08-01T04:17:18;20.20;99.90
20750;DHT22;10535;50.664;4.564;2022-08-01T04:19:45;20.20;99.90
20750;DHT22;10535;50.664;4.564;2022-08-01T04:22:13;20.30;99.90
20750;DHT22;10535;50.664;4.564;2022-08-01T04:24:40;20.30;99.90
20750;DHT22;10535;50.664;4.564;2022-08-01T04:27:13;20.30;99.90
20750;DHT22;10535;50.664;4.564;2022-08-01T04:29:39;20.30;99.90
20750;DHT22;10535;50.664;4.564;2022-08-01T04:32:07;20.30;99.90
20750;DHT22;10535;50.664;4.564;2022-08-01T04:34:37;20.30;99.90
20750;DHT22;10535;50.664;4.564;2022-08-01T04:37:04;20.10;99.90
20750;DHT22;10535;50.664;4.564;2022-08-01T04:39:32;19.90;99.90
20750;DHT22;10535;50.664;4.564;2022-08-01T04:41:59;19.80;99.90
20750;DHT22;10535;50.664;4.564;2022-08-01T04:44:29;20.10;99.90
20750;DHT22;10535;50.664;4.564;2022-08-01T04:47:01;20.10;99.90
20750;DHT22;10535;50.664;4.564;2022-08-01T04:49:31;20.20;99.90
20750;DHT22;10535;50.664;4.564;2022-08-01T04:51:57;20.00;99.90
20750;DHT22;10535;50.664;4.564;2022-08-01T04:54:33;19.80;99.90
20750;DHT22;10535;50.664;4.564;2022-08-01T04:56:59;19.80;99.90
20750;DHT22;10535;50.664;4.564;2022-08-01T04:59:29;19.60;99.90
20750;DHT22;10535;50.664;4.564;2022-08-01T05:02:05;19.70;99.90
20750;DHT22;10535;50.664;4.564;2022-08-01T05:04:30;19.80;99.90
20750;DHT22;10535;50.664;4.564;2022-08-01T05:06:56;19.80;99.90
20750;DHT22;10535;50.664;4.564;2022-08-01T05:09:22;19.80;99.90
20750;DHT22;10535;50.664;4.564;2022-08-01T05:11:47;19.80;99.90
20750;DHT22;10535;50.664;4.564;2022-08-01T05:14:13;19.90;99.90
20750;DHT22;10535;50.664;4.564;2022-08-01T05:16:39;20.00;99.90
20750;DHT22;10535;50.664;4.564;2022-08-01T05:19:04;19.90;99.90
20750;DHT22;10535;50.664;4.564;2022-08-01T05:21:30;19.80;99.90
20750;DHT22;10535;50.664;4.564;2022-08-01T05:23:55;20.00;99.90
20750;DHT22;10535;50.664;4.564;2022-08-01T05:26:21;20.00;99.90
20750;DHT22;10535;50.664;4.564;2022-08-01T05:28:47;20.10;99.90
20750;DHT22;10535;50.664;4.564;2022-08-01T05:31:12;20.10;99.90
20750;DHT22;10535;50.664;4.564;2022-08-01T05:33:38;20.10;99.90
20750;DHT22;10535;50.664;4.564;2022-08-01T05:36:04;20.10;99.90
20750;DHT22;10535;50.664;4.564;2022-08-01T05:38:29;20.10;99.90
20750;DHT22;10535;50.664;4.564;2022-08-01T05:40:55;20.20;99.90
20750;DHT22;10535;50.664;4.564;2022-08-01T05:43:21;20.30;99.90
20750;DHT22;10535;50.664;4.564;2022-08-01T05:45:46;20.30;99.90
20750;DHT22;10535;50.664;4.564;2022-08-01T05:48:12;20.30;99.90
20750;DHT22;10535;50.664;4.564;2022-08-01T05:50:38;20.30;99.90
20750;DHT22;10535;50.664;4.564;2022-08-01T05:53:03;20.30;99.90
20750;DHT22;10535;50.664;4.564;2022-08-01T05:55:29;20.30;99.90
20750;DHT22;10535;50.664;4.564;2022-08-01T05:57:55;20.40;99.90
20750;DHT22;10535;50.664;4.564;2022-08-01T06:00:21;20.50;99.90
20750;DHT22;10535;50.664;4.564;2022-08-01T06:02:46;20.40;99.90
20750;DHT22;10535;50.664;4.564;2022-08-01T06:05:12;20.40;99.90
20750;DHT22;10535;50.664;4.564;2022-08-01T06:07:37;20.50;99.90
20750;DHT22;10535;50.664;4.564;2022-08-01T06:10:05;20.40;99.90
20750;DHT22;10535;50.664;4.564;2022-08-01T06:12:33;20.30;99.90
20750;DHT22;10535;50.664;4.564;2022-08-01T06:14:59;20.30;99.90
20750;DHT22;10535;50.664;4.564;2022-08-01T06:17:25;20.40;99.90
20750;DHT22;10535;50.664;4.564;2022-08-01T06:19:50;20.50;99.90
20750;DHT22;10535;50.664;4.564;2022-08-01T06:22:16;20.50;99.90
20750;DHT22;10535;50.664;4.564;2022-08-01T06:24:41;20.40;99.90
20750;DHT22;10535;50.664;4.564;2022-08-01T06:27:07;20.50;99.90
20750;DHT22;10535;50.664;4.564;2022-08-01T06:29:33;20.60;99.90
20750;DHT22;10535;50.664;4.564;2022-08-01T06:31:58;20.70;99.90
20750;DHT22;10535;50.664;4.564;2022-08-01T06:34:24;20.70;99.90
20750;DHT22;10535;50.664;4.564;2022-08-01T06:36:50;20.80;99.90
20750;DHT22;10535;50.664;4.564;2022-08-01T06:39:16;20.70;99.90
20750;DHT22;10535;50.664;4.564;2022-08-01T06:41:42;20.70;99.90
20750;DHT22;10535;50.664;4.564;2022-08-01T06:44:07;20.80;99.90
20750;DHT22;10535;50.664;4.564;2022-08-01T06:46:34;20.60;99.90
20750;DHT22;10535;50.664;4.564;2022-08-01T06:49:00;20.40;99.90
20750;DHT22;10535;50.664;4.564;2022-08-01T06:51:25;20.40;99.90
20750;DHT22;10535;50.664;4.564;2022-08-01T06:53:51;20.30;99.90
20750;DHT22;10535;50.664;4.564;2022-08-01T06:56:18;20.40;99.90
20750;DHT22;10535;50.664;4.564;2022-08-01T06:58:43;20.50;99.90
20750;DHT22;10535;50.664;4.564;2022-08-01T07:01:09;20.30;99.90
20750;DHT22;10535;50.664;4.564;2022-08-01T07:03:35;20.20;99.90
20750;DHT22;10535;50.664;4.564;2022-08-01T07:06:01;20.40;99.90
20750;DHT22;10535;50.664;4.564;2022-08-01T07:08:26;20.30;99.90
20750;DHT22;10535;50.664;4.564;2022-08-01T07:10:52;20.50;99.90
20750;DHT22;10535;50.664;4.564;2022-08-01T07:13:18;20.90;99.90
20750;DHT22;10535;50.664;4.564;2022-08-01T07:15:48;21.10;99.90
20750;DHT22;10535;50.664;4.564;2022-08-01T07:18:14;21.30;99.90
20750;DHT22;10535;50.664;4.564;2022-08-01T07:20:39;21.30;99.90
20750;DHT22;10535;50.664;4.564;2022-08-01T07:23:05;21.50;99.90
20750;DHT22;10535;50.664;4.564;2022-08-01T07:25:30;21.70;99.90
20750;DHT22;10535;50.664;4.564;2022-08-01T07:27:56;21.80;99.90
20750;DHT22;10535;50.664;4.564;2022-08-01T07:30:22;21.80;99.90
20750;DHT22;10535;50.664;4.564;2022-08-01T07:32:47;22.10;99.90
20750;DHT22;10535;50.664;4.564;2022-08-01T07:35:13;21.90;99.90
20750;DHT22;10535;50.664;4.564;2022-08-01T07:37:39;22.00;99.90
20750;DHT22;10535;50.664;4.564;2022-08-01T07:40:05;22.10;99.90
20750;DHT22;10535;50.664;4.564;2022-08-01T07:42:31;21.90;99.90
20750;DHT22;10535;50.664;4.564;2022-08-01T07:44:57;21.90;99.90
20750;DHT22;10535;50.664;4.564;2022-08-01T07:47:24;22.10;99.90
20750;DHT22;10535;50.664;4.564;2022-08-01T07:49:50;21.80;99.90
20750;DHT22;10535;50.664;4.564;2022-08-01T07:52:16;21.80;99.90
20750;DHT22;10535;50.664;4.564;2022-08-01T07:54:42;21.90;99.90
20750;DHT22;10535;50.664;4.564;2022-08-01T07:57:07;21.90;99.90
20750;DHT22;10535;50.664;4.564;2022-08-01T07:59:33;22.30;99.90
20750;DHT22;10535;50.664;4.564;2022-08-01T08:01:59;22.30;99.90
20750;DHT22;10535;50.664;4.564;2022-08-01T08:04:26;22.20;99.90
20750;DHT22;10535;50.664;4.564;2022-08-01T08:06:52;22.00;99.90
20750;DHT22;10535;50.664;4.564;2022-08-01T08:09:18;22.40;99.90
20750;DHT22;10535;50.664;4.564;2022-08-01T08:11:44;22.60;99.90
20750;DHT22;10535;50.664;4.564;2022-08-01T08:14:10;23.10;99.90
20750;DHT22;10535;50.664;4.564;2022-08-01T08:16:36;23.20;99.90
20750;DHT22;10535;50.664;4.564;2022-08-01T08:19:02;23.50;99.90
20750;DHT22;10535;50.664;4.564;2022-08-01T08:21:27;23.80;99.90
20750;DHT22;10535;50.664;4.564;2022-08-01T08:23:54;23.90;99.90
20750;DHT22;10535;50.664;4.564;2022-08-01T08:26:38;24.10;99.90
20750;DHT22;10535;50.664;4.564;2022-08-01T08:29:03;24.10;99.90
20750;DHT22;10535;50.664;4.564;2022-08-01T08:31:29;23.70;99.90
20750;DHT22;10535;50.664;4.564;2022-08-01T08:33:54;23.80;99.90
20750;DHT22;10535;50.664;4.564;2022-08-01T08:36:21;24.20;99.90
20750;DHT22;10535;50.664;4.564;2022-08-01T08:38:49;24.30;99.90
20750;DHT22;10535;50.664;4.564;2022-08-01T08:41:15;24.60;99.90
20750;DHT22;10535;50.664;4.564;2022-08-01T08:43:41;24.80;99.90
20750;DHT22;10535;50.664;4.564;2022-08-01T08:46:08;24.30;99.90
20750;DHT22;10535;50.664;4.564;2022-08-01T08:48:37;24.10;99.90
20750;DHT22;10535;50.664;4.564;2022-08-01T08:51:04;23.70;99.90
20750;DHT22;10535;50.664;4.564;2022-08-01T08:53:31;23.90;99.90
20750;DHT22;10535;50.664;4.564;2022-08-01T08:55:59;24.30;99.90
20750;DHT22;10535;50.664;4.564;2022-08-01T08:58:26;24.30;99.90
20750;DHT22;10535;50.664;4.564;2022-08-01T09:00:54;24.40;99.90
20750;DHT22;10535;50.664;4.564;2022-08-01T09:03:20;24.90;99.90
20750;DHT22;10535;50.664;4.564;2022-08-01T09:05:47;25.00;99.90
20750;DHT22;10535;50.664;4.564;2022-08-01T09:08:14;25.20;99.90
20750;DHT22;10535;50.664;4.564;2022-08-01T09:10:40;25.40;99.90
20750;DHT22;10535;50.664;4.564;2022-08-01T09:13:12;25.70;99.90
20750;DHT22;10535;50.664;4.564;2022-08-01T09:15:47;26.10;99.90
20750;DHT22;10535;50.664;4.564;2022-08-01T09:18:29;26.20;99.90
20750;DHT22;10535;50.664;4.564;2022-08-01T09:23:46;25.60;99.90
20750;DHT22;10535;50.664;4.564;2022-08-01T09:26:35;25.80;99.90
20750;DHT22;10535;50.664;4.564;2022-08-01T09:29:02;25.70;99.90
20750;DHT22;10535;50.664;4.564;2022-08-01T09:31:38;25.30;99.90
20750;DHT22;10535;50.664;4.564;2022-08-01T09:34:04;25.30;99.90
20750;DHT22;10535;50.664;4.564;2022-08-01T09:36:52;24.90;99.90
20750;DHT22;10535;50.664;4.564;2022-08-01T09:39:23;25.10;99.90
20750;DHT22;10535;50.664;4.564;2022-08-01T09:41:49;25.10;99.90
20750;DHT22;10535;50.664;4.564;2022-08-01T09:44:17;25.10;99.90
20750;DHT22;10535;50.664;4.564;2022-08-01T09:46:54;24.70;99.90
20750;DHT22;10535;50.664;4.564;2022-08-01T09:49:32;24.60;99.90
20750;DHT22;10535;50.664;4.564;2022-08-01T09:57:21;25.50;99.90
20750;DHT22;10535;50.664;4.564;2022-08-01T09:59:50;25.00;99.90
20750;DHT22;10535;50.664;4.564;2022-08-01T10:04:59;25.60;99.90
20750;DHT22;10535;50.664;4.564;2022-08-01T10:07:26;25.50;99.90
20750;DHT22;10535;50.664;4.564;2022-08-01T10:09:52;24.90;99.90
20750;DHT22;10535;50.664;4.564;2022-08-01T10:12:22;24.90;99.90
20750;DHT22;10535;50.664;4.564;2022-08-01T10:14:49;25.40;99.90
20750;DHT22;10535;50.664;4.564;2022-08-01T10:17:17;25.40;99.90
20750;DHT22;10535;50.664;4.564;2022-08-01T10:19:45;25.70;99.90
20750;DHT22;10535;50.664;4.564;2022-08-01T10:22:13;25.80;99.90
20750;DHT22;10535;50.664;4.564;2022-08-01T10:24:54;26.00;99.90
20750;DHT22;10535;50.664;4.564;2022-08-01T10:27:21;25.50;99.90
20750;DHT22;10535;50.664;4.564;2022-08-01T10:29:55;26.00;99.90
20750;DHT22;10535;50.664;4.564;2022-08-01T10:32:23;26.00;99.90
20750;DHT22;10535;50.664;4.564;2022-08-01T10:34:52;25.20;99.90
20750;DHT22;10535;50.664;4.564;2022-08-01T10:37:19;25.50;99.90
20750;DHT22;10535;50.664;4.564;2022-08-01T10:39:48;26.50;99.90
20750;DHT22;10535;50.664;4.564;2022-08-01T10:42:18;26.60;99.90
20750;DHT22;10535;50.664;4.564;2022-08-01T10:44:44;27.10;99.90
20750;DHT22;10535;50.664;4.564;2022-08-01T10:47:23;27.50;99.90
20750;DHT22;10535;50.664;4.564;2022-08-01T10:50:11;27.10;99.90
20750;DHT22;10535;50.664;4.564;2022-08-01T10:58:37;26.90;99.90
20750;DHT22;10535;50.664;4.564;2022-08-01T11:01:24;26.60;99.90
20750;DHT22;10535;50.664;4.564;2022-08-01T11:04:09;26.60;99.90
20750;DHT22;10535;50.664;4.564;2022-08-01T11:07:05;26.80;99.90
20750;DHT22;10535;50.664;4.564;2022-08-01T11:09:48;26.60;99.90
20750;DHT22;10535;50.664;4.564;2022-08-01T11:12:18;26.60;99.90
20750;DHT22;10535;50.664;4.564;2022-08-01T11:17:57;26.90;99.90
20750;DHT22;10535;50.664;4.564;2022-08-01T11:20:27;26.70;99.90
20750;DHT22;10535;50.664;4.564;2022-08-01T11:28:23;26.00;99.90
20750;DHT22;10535;50.664;4.564;2022-08-01T11:34:02;26.10;99.90
20750;DHT22;10535;50.664;4.564;2022-08-01T11:36:27;26.40;99.90
20750;DHT22;10535;50.664;4.564;2022-08-01T11:41:38;26.00;99.90
20750;DHT22;10535;50.664;4.564;2022-08-01T11:44:12;26.10;99.90
20750;DHT22;10535;50.664;4.564;2022-08-01T11:46:57;25.90;99.90
20750;DHT22;10535;50.664;4.564;2022-08-01T11:49:43;25.70;99.90
20750;DHT22;10535;50.664;4.564;2022-08-01T11:54:53;26.50;99.90
20750;DHT22;10535;50.664;4.564;2022-08-01T11:57:39;26.60;99.90
20750;DHT22;10535;50.664;4.564;2022-08-01T12:00:18;26.60;99.90
20750;DHT22;10535;50.664;4.564;2022-08-01T12:02:53;26.90;99.90
20750;DHT22;10535;50.664;4.564;2022-08-01T12:05:50;27.60;99.90
20750;DHT22;10535;50.664;4.564;2022-08-01T12:08:31;27.50;99.90
20750;DHT22;10535;50.664;4.564;2022-08-01T12:11:06;27.40;99.90
20750;DHT22;10535;50.664;4.564;2022-08-01T12:13:41;27.80;99.90
20750;DHT22;10535;50.664;4.564;2022-08-01T12:16:47;28.40;99.90
20750;DHT22;10535;50.664;4.564;2022-08-01T12:19:28;28.60;99.90
20750;DHT22;10535;50.664;4.564;2022-08-01T12:22:10;29.10;99.90
20750;DHT22;10535;50.664;4.564;2022-08-01T12:24:47;29.40;99.90
20750;DHT22;10535;50.664;4.564;2022-08-01T12:27:29;28.20;99.90
20750;DHT22;10535;50.664;4.564;2022-08-01T12:30:06;28.20;99.90
20750;DHT22;10535;50.664;4.564;2022-08-01T12:32:54;28.70;99.90
20750;DHT22;10535;50.664;4.564;2022-08-01T12:35:23;28.40;99.90
20750;DHT22;10535;50.664;4.564;2022-08-01T12:38:00;28.10;99.90
20750;DHT22;10535;50.664;4.564;2022-08-01T12:41:00;27.80;99.90
20750;DHT22;10535;50.664;4.564;2022-08-01T12:43:27;27.90;99.90
20750;DHT22;10535;50.664;4.564;2022-08-01T12:46:20;28.00;99.90
20750;DHT22;10535;50.664;4.564;2022-08-01T12:48:49;28.10;99.90
20750;DHT22;10535;50.664;4.564;2022-08-01T12:51:50;27.30;99.90
20750;DHT22;10535;50.664;4.564;2022-08-01T12:54:17;27.00;99.90
20750;DHT22;10535;50.664;4.564;2022-08-01T12:56:53;27.10;99.90
20750;DHT22;10535;50.664;4.564;2022-08-01T12:59:29;27.30;99.90
20750;DHT22;10535;50.664;4.564;2022-08-01T13:01:55;27.70;99.90
20750;DHT22;10535;50.664;4.564;2022-08-01T13:04:27;28.10;99.90
20750;DHT22;10535;50.664;4.564;2022-08-01T13:06:58;28.20;99.90
20750;DHT22;10535;50.664;4.564;2022-08-01T13:09:30;27.50;99.90
20750;DHT22;10535;50.664;4.564;2022-08-01T13:11:57;26.90;99.90
20750;DHT22;10535;50.664;4.564;2022-08-01T13:14:29;26.90;99.90
20750;DHT22;10535;50.664;4.564;2022-08-01T13:17:35;26.80;99.90
20750;DHT22;10535;50.664;4.564;2022-08-01T13:20:03;26.70;99.90
20750;DHT22;10535;50.664;4.564;2022-08-01T13:22:36;26.70;99.90
20750;DHT22;10535;50.664;4.564;2022-08-01T13:25:19;26.70;99.90
20750;DHT22;10535;50.664;4.564;2022-08-01T13:28:16;26.90;99.90
20750;DHT22;10535;50.664;4.564;2022-08-01T13:31:11;26.60;99.90
20750;DHT22;10535;50.664;4.564;2022-08-01T13:34:03;26.40;99.90
20750;DHT22;10535;50.664;4.564;2022-08-01T13:36:34;26.60;99.90
20750;DHT22;10535;50.664;4.564;2022-08-01T13:39:00;26.70;99.90
20750;DHT22;10535;50.664;4.564;2022-08-01T13:41:50;27.00;99.90
20750;DHT22;10535;50.664;4.564;2022-08-01T13:44:21;27.40;99.90
20750;DHT22;10535;50.664;4.564;2022-08-01T13:46:46;27.50;99.90
20750;DHT22;10535;50.664;4.564;2022-08-01T13:49:32;27.30;99.90
20750;DHT22;10535;50.664;4.564;2022-08-01T13:51:59;27.40;99.90
20750;DHT22;10535;50.664;4.564;2022-08-01T13:54:25;27.50;99.90
20750;DHT22;10535;50.664;4.564;2022-08-01T13:56:51;27.80;99.90
20750;DHT22;10535;50.664;4.564;2022-08-01T13:59:17;28.30;99.90
20750;DHT22;10535;50.664;4.564;2022-08-01T14:01:43;28.60;99.90
20750;DHT22;10535;50.664;4.564;2022-08-01T14:04:10;28.20;99.90
20750;DHT22;10535;50.664;4.564;2022-08-01T14:06:37;28.40;99.90
20750;DHT22;10535;50.664;4.564;2022-08-01T14:09:06;28.70;99.90
20750;DHT22;10535;50.664;4.564;2022-08-01T14:11:35;28.80;99.90
20750;DHT22;10535;50.664;4.564;2022-08-01T14:14:13;28.40;99.90
20750;DHT22;10535;50.664;4.564;2022-08-01T14:17:02;28.30;99.90
20750;DHT22;10535;50.664;4.564;2022-08-01T14:19:28;28.30;99.90
20750;DHT22;10535;50.664;4.564;2022-08-01T14:21:53;28.40;99.90
20750;DHT22;10535;50.664;4.564;2022-08-01T14:24:19;28.10;99.90
20750;DHT22;10535;50.664;4.564;2022-08-01T14:26:45;27.80;99.90
20750;DHT22;10535;50.664;4.564;2022-08-01T14:29:10;28.00;99.90
20750;DHT22;10535;50.664;4.564;2022-08-01T14:31:36;27.70;99.90
20750;DHT22;10535;50.664;4.564;2022-08-01T14:34:05;27.40;99.90
20750;DHT22;10535;50.664;4.564;2022-08-01T14:36:30;26.90;99.90
20750;DHT22;10535;50.664;4.564;2022-08-01T14:38:56;26.70;99.90
20750;DHT22;10535;50.664;4.564;2022-08-01T14:41:21;26.60;99.90
20750;DHT22;10535;50.664;4.564;2022-08-01T14:43:47;26.90;99.90
20750;DHT22;10535;50.664;4.564;2022-08-01T14:46:13;27.40;99.90
20750;DHT22;10535;50.664;4.564;2022-08-01T14:48:38;27.60;99.90
20750;DHT22;10535;50.664;4.564;2022-08-01T14:51:04;27.40;99.90
20750;DHT22;10535;50.664;4.564;2022-08-01T14:53:32;27.40;99.90
20750;DHT22;10535;50.664;4.564;2022-08-01T14:55:58;27.30;99.90
20750;DHT22;10535;50.664;4.564;2022-08-01T14:58:24;27.30;99.90
20750;DHT22;10535;50.664;4.564;2022-08-01T15:00:49;26.90;99.90
20750;DHT22;10535;50.664;4.564;2022-08-01T15:03:20;26.60;99.90
20750;DHT22;10535;50.664;4.564;2022-08-01T15:05:45;26.50;99.90
20750;DHT22;10535;50.664;4.564;2022-08-01T15:08:11;26.60;99.90
20750;DHT22;10535;50.664;4.564;2022-08-01T15:10:37;26.30;99.90
20750;DHT22;10535;50.664;4.564;2022-08-01T15:13:02;26.50;99.90
20750;DHT22;10535;50.664;4.564;2022-08-01T15:15:28;26.40;99.90
20750;DHT22;10535;50.664;4.564;2022-08-01T15:17:54;26.70;99.90
20750;DHT22;10535;50.664;4.564;2022-08-01T15:20:19;26.70;99.90
20750;DHT22;10535;50.664;4.564;2022-08-01T15:22:45;26.80;99.90
20750;DHT22;10535;50.664;4.564;2022-08-01T15:25:11;26.80;99.90
20750;DHT22;10535;50.664;4.564;2022-08-01T15:27:36;26.80;99.90
20750;DHT22;10535;50.664;4.564;2022-08-01T15:30:03;26.90;99.90
20750;DHT22;10535;50.664;4.564;2022-08-01T15:32:29;27.10;99.90
20750;DHT22;10535;50.664;4.564;2022-08-01T15:34:54;27.10;99.90
20750;DHT22;10535;50.664;4.564;2022-08-01T15:37:20;27.30;99.90
20750;DHT22;10535;50.664;4.564;2022-08-01T15:39:46;27.10;99.90
20750;DHT22;10535;50.664;4.564;2022-08-01T15:42:14;27.30;99.90
20750;DHT22;10535;50.664;4.564;2022-08-01T15:44:41;27.00;99.90
20750;DHT22;10535;50.664;4.564;2022-08-01T15:47:07;27.10;99.90
20750;DHT22;10535;50.664;4.564;2022-08-01T15:49:33;27.00;99.90
20750;DHT22;10535;50.664;4.564;2022-08-01T15:52:01;27.10;99.90
20750;DHT22;10535;50.664;4.564;2022-08-01T15:54:27;27.00;99.90
20750;DHT22;10535;50.664;4.564;2022-08-01T15:56:53;27.10;99.90
20750;DHT22;10535;50.664;4.564;2022-08-01T15:59:18;27.00;99.90
20750;DHT22;10535;50.664;4.564;2022-08-01T16:01:44;27.30;99.90
20750;DHT22;10535;50.664;4.564;2022-08-01T16:04:10;27.40;99.90
20750;DHT22;10535;50.664;4.564;2022-08-01T16:06:36;27.40;99.90
20750;DHT22;10535;50.664;4.564;2022-08-01T16:09:03;27.40;99.90
20750;DHT22;10535;50.664;4.564;2022-08-01T16:11:29;27.60;99.90
20750;DHT22;10535;50.664;4.564;2022-08-01T16:13:56;27.50;99.90
20750;DHT22;10535;50.664;4.564;2022-08-01T16:16:22;27.50;99.90
20750;DHT22;10535;50.664;4.564;2022-08-01T16:18:48;27.30;99.90
20750;DHT22;10535;50.664;4.564;2022-08-01T16:21:14;27.10;99.90
20750;DHT22;10535;50.664;4.564;2022-08-01T16:23:41;26.60;99.90
20750;DHT22;10535;50.664;4.564;2022-08-01T16:26:07;26.80;99.90
20750;DHT22;10535;50.664;4.564;2022-08-01T16:28:33;27.10;99.90
20750;DHT22;10535;50.664;4.564;2022-08-01T16:30:59;27.30;99.90